createdAt,value
2023-05-16T00:01:48.789Z,17.67
2023-05-16T00:04:16.226Z,16.00
2023-05-16T00:06:43.418Z,14.63
2023-05-16T00:09:10.285Z,16.30
2023-05-16T00:11:37.122Z,17.10
2023-05-16T00:14:03.799Z,14.43
2023-05-16T00:16:30.703Z,12.93
2023-05-16T00:19:00.938Z,12.77
2023-05-16T00:21:28.272Z,14.00
2023-05-16T00:23:54.918Z,12.97
2023-05-16T00:26:21.798Z,13.30
2023-05-16T00:28:48.767Z,13.50
2023-05-16T00:31:15.718Z,12.47
2023-05-16T00:33:42.646Z,12.83
2023-05-16T00:36:09.614Z,14.03
2023-05-16T00:38:37.432Z,14.23
2023-05-16T00:41:04.447Z,15.37
2023-05-16T00:43:31.498Z,11.90
2023-05-16T00:45:58.381Z,11.93
2023-05-16T00:48:25.372Z,11.37
2023-05-16T00:50:53.231Z,11.77
2023-05-16T00:53:22.147Z,12.73
2023-05-16T00:55:48.928Z,11.17
2023-05-16T00:58:16.466Z,12.53
2023-05-16T01:00:47.217Z,11.47
2023-05-16T01:03:15.421Z,10.40
2023-05-16T01:05:42.252Z,10.23
2023-05-16T01:08:08.885Z,10.40
2023-05-16T01:10:48.578Z,11.83
2023-05-16T01:13:27.260Z,12.43
2023-05-16T01:16:04.723Z,8.93
2023-05-16T01:18:38.586Z,10.23
2023-05-16T01:21:13.496Z,9.53
2023-05-16T01:24:00.432Z,9.23
2023-05-16T01:26:28.370Z,9.57
2023-05-16T01:28:55.429Z,10.17
2023-05-16T01:31:23.910Z,9.30
2023-05-16T01:33:51.827Z,9.43
2023-05-16T01:36:43.273Z,9.20
2023-05-16T01:39:27.081Z,9.50
2023-05-16T01:42:01.084Z,10.53
2023-05-16T01:44:40.327Z,8.47
2023-05-16T01:47:12.053Z,9.87
2023-05-16T01:49:44.737Z,9.67
2023-05-16T01:52:21.629Z,9.13
2023-05-16T01:54:52.890Z,9.67
2023-05-16T01:57:25.419Z,9.63
2023-05-16T01:59:52.686Z,11.20
2023-05-16T02:02:20.022Z,7.67
2023-05-16T02:04:46.854Z,8.77
2023-05-16T02:07:15.788Z,10.37
2023-05-16T02:09:45.088Z,9.67
2023-05-16T02:12:11.740Z,8.00
2023-05-16T02:14:38.514Z,6.97
2023-05-16T02:17:06.694Z,8.57
2023-05-16T02:19:33.364Z,10.07
2023-05-16T02:22:00.657Z,8.27
2023-05-16T02:24:27.379Z,8.97
2023-05-16T02:26:55.754Z,11.20
2023-05-16T02:29:22.384Z,8.73
2023-05-16T02:31:49.310Z,9.80
2023-05-16T02:34:16.518Z,9.53
2023-05-16T02:36:43.261Z,7.90
2023-05-16T02:39:10.340Z,9.17
2023-05-16T02:41:37.308Z,9.00
2023-05-16T02:44:04.258Z,10.20
2023-05-16T02:46:33.505Z,7.83
2023-05-16T02:49:00.585Z,7.70
2023-05-16T02:51:28.365Z,9.47
2023-05-16T02:53:57.160Z,7.43
2023-05-16T02:56:23.934Z,7.87
2023-05-16T02:58:51.295Z,7.50
2023-05-16T03:01:18.242Z,7.30
2023-05-16T03:03:45.353Z,7.67
2023-05-16T03:06:12.616Z,8.00
2023-05-16T03:08:39.277Z,7.87
2023-05-16T03:11:06.010Z,7.73
2023-05-16T03:13:33.066Z,7.50
2023-05-16T03:16:00.204Z,9.60
2023-05-16T03:18:26.891Z,8.30
2023-05-16T03:20:53.736Z,8.73
2023-05-16T03:23:21.293Z,7.80
2023-05-16T03:25:48.182Z,7.33
2023-05-16T03:28:16.572Z,8.57
2023-05-16T03:30:43.423Z,8.00
2023-05-16T03:33:10.417Z,6.43
2023-05-16T03:35:37.985Z,8.37
2023-05-16T03:38:04.770Z,7.23
2023-05-16T03:40:31.529Z,8.33
2023-05-16T03:42:58.140Z,7.93
2023-05-16T03:45:25.072Z,6.87
2023-05-16T03:47:52.194Z,7.27
2023-05-16T03:50:18.984Z,9.57
2023-05-16T03:52:45.815Z,9.37
2023-05-16T03:55:14.539Z,5.97
2023-05-16T03:57:44.741Z,5.53
2023-05-16T04:00:12.683Z,7.00
2023-05-16T04:02:40.955Z,6.07
2023-05-16T04:05:09.231Z,5.90
2023-05-16T04:07:37.070Z,6.37
2023-05-16T04:10:05.024Z,6.73
2023-05-16T04:12:32.021Z,6.93
2023-05-16T04:14:58.872Z,5.67
2023-05-16T04:17:25.654Z,7.60
2023-05-16T04:19:52.302Z,5.10
2023-05-16T04:22:21.881Z,7.57
2023-05-16T04:24:49.042Z,6.37
2023-05-16T04:27:15.845Z,7.17
2023-05-16T04:29:42.666Z,7.17
2023-05-16T04:32:09.617Z,4.73
2023-05-16T04:34:39.742Z,4.80
2023-05-16T04:37:07.669Z,6.33
2023-05-16T04:39:35.371Z,3.97
2023-05-16T04:42:04.361Z,5.43
2023-05-16T04:44:31.657Z,3.90
2023-05-16T04:46:58.502Z,5.17
2023-05-16T04:49:25.505Z,3.97
2023-05-16T04:51:52.165Z,5.80
2023-05-16T04:54:18.811Z,2.73
2023-05-16T04:56:45.463Z,5.40
2023-05-16T04:59:12.085Z,3.03
2023-05-16T05:01:39.467Z,3.97
2023-05-16T05:04:06.522Z,2.80
2023-05-16T05:06:33.355Z,2.03
2023-05-16T05:09:00.026Z,2.37
2023-05-16T05:11:27.310Z,2.20
2023-05-16T05:13:54.057Z,2.00
2023-05-16T05:16:20.888Z,3.43
2023-05-16T05:18:47.819Z,5.07
2023-05-16T05:21:14.638Z,2.27
2023-05-16T05:23:41.359Z,3.13
2023-05-16T05:26:08.102Z,2.13
2023-05-16T05:28:34.763Z,2.50
2023-05-16T05:31:01.417Z,1.43
2023-05-16T05:33:30.893Z,2.80
2023-05-16T05:35:57.789Z,1.80
2023-05-16T05:38:24.598Z,2.30
2023-05-16T05:40:51.365Z,1.80
2023-05-16T05:43:18.023Z,1.73
2023-05-16T05:45:44.807Z,1.37
2023-05-16T05:48:12.832Z,1.27
2023-05-16T05:50:39.733Z,1.17
2023-05-16T05:53:06.580Z,2.07
2023-05-16T05:55:33.304Z,1.47
2023-05-16T05:57:59.946Z,4.80
2023-05-16T06:00:26.739Z,1.50
2023-05-16T06:02:53.650Z,1.30
2023-05-16T06:05:20.414Z,0.70
2023-05-16T06:07:47.060Z,2.17
2023-05-16T06:10:14.047Z,0.80
2023-05-16T06:12:40.752Z,0.90
2023-05-16T06:15:08.367Z,0.77
2023-05-16T06:17:35.121Z,1.63
2023-05-16T06:20:01.892Z,1.30
2023-05-16T06:22:29.355Z,0.87
2023-05-16T06:24:55.977Z,1.90
2023-05-16T06:27:22.914Z,1.03
2023-05-16T06:29:49.541Z,0.50
2023-05-16T06:32:16.169Z,0.40
2023-05-16T06:34:43.042Z,0.93
2023-05-16T06:37:09.677Z,0.70
2023-05-16T06:39:37.089Z,0.50
2023-05-16T06:42:04.033Z,1.07
2023-05-16T06:44:32.556Z,1.83
2023-05-16T06:46:59.290Z,0.40
2023-05-16T06:49:26.025Z,0.73
2023-05-16T06:51:52.738Z,1.00
2023-05-16T06:54:19.454Z,0.77
2023-05-16T06:56:46.184Z,0.83
2023-05-16T06:59:13.159Z,1.00
2023-05-16T07:01:39.899Z,3.23
2023-05-16T07:04:06.920Z,1.57
2023-05-16T07:06:33.846Z,1.37
2023-05-16T07:09:00.608Z,1.00
2023-05-16T07:11:27.262Z,1.50
2023-05-16T07:13:54.080Z,2.40
2023-05-16T07:16:20.954Z,1.60
2023-05-16T07:18:47.717Z,1.67
2023-05-16T07:21:14.540Z,2.63
2023-05-16T07:23:41.619Z,1.97
2023-05-16T07:26:08.393Z,1.30
2023-05-16T07:28:35.079Z,2.20
2023-05-16T07:31:01.735Z,1.80
2023-05-16T07:33:28.615Z,2.33
2023-05-16T07:36:07.737Z,2.33
2023-05-16T07:38:42.308Z,2.63
2023-05-16T07:41:09.201Z,1.80
2023-05-16T07:43:36.763Z,1.70
2023-05-16T07:46:03.658Z,1.80
2023-05-16T07:48:30.399Z,2.33
2023-05-16T07:50:57.854Z,1.80
2023-05-16T07:53:24.640Z,1.67
2023-05-16T07:55:51.616Z,1.53
2023-05-16T07:58:18.396Z,1.57
2023-05-16T08:00:45.432Z,1.50
2023-05-16T08:03:12.365Z,1.90
2023-05-16T08:05:39.780Z,1.93
2023-05-16T08:08:06.520Z,1.73
2023-05-16T08:10:33.268Z,2.17
2023-05-16T08:12:59.944Z,1.80
2023-05-16T08:15:28.431Z,3.37
2023-05-16T08:17:58.601Z,2.70
2023-05-16T08:20:26.349Z,2.30
2023-05-16T08:22:53.386Z,2.27
2023-05-16T08:25:20.490Z,2.80
2023-05-16T08:27:49.456Z,2.50
2023-05-16T08:30:16.230Z,2.70
2023-05-16T08:32:42.929Z,2.53
2023-05-16T08:35:11.108Z,2.47
2023-05-16T08:37:37.928Z,2.37
2023-05-16T08:40:08.278Z,2.93
2023-05-16T08:42:35.457Z,2.30
2023-05-16T08:45:02.639Z,3.83
2023-05-16T08:47:31.708Z,3.07
2023-05-16T08:49:59.330Z,3.00
2023-05-16T08:52:30.577Z,2.70
2023-05-16T08:55:09.933Z,3.00
2023-05-16T08:57:38.110Z,3.30
2023-05-16T09:00:13.294Z,4.13
2023-05-16T09:02:41.930Z,5.47
2023-05-16T09:05:11.748Z,4.93
2023-05-16T09:07:38.655Z,5.97
2023-05-16T09:10:07.062Z,5.00
2023-05-16T09:12:34.517Z,6.90
2023-05-16T09:15:06.050Z,6.17
2023-05-16T09:17:45.636Z,7.30
2023-05-16T09:20:14.486Z,6.17
2023-05-16T09:22:51.877Z,6.97
2023-05-16T09:25:29.698Z,15.60
2023-05-16T09:27:59.839Z,12.57
2023-05-16T09:30:31.990Z,7.47
2023-05-16T09:32:59.793Z,5.93
2023-05-16T09:37:56.791Z,7.23
2023-05-16T09:40:24.114Z,7.20
2023-05-16T09:43:04.795Z,4.37
2023-05-16T09:45:32.803Z,5.93
2023-05-16T09:48:10.703Z,5.30
2023-05-16T09:50:37.950Z,6.60
2023-05-16T09:53:05.694Z,7.53
2023-05-16T09:55:33.406Z,7.03
2023-05-16T09:58:00.372Z,6.80
2023-05-16T10:00:32.205Z,6.73
2023-05-16T10:03:03.258Z,7.70
2023-05-16T10:05:31.480Z,6.03
2023-05-16T10:07:58.679Z,5.77
2023-05-16T10:10:25.644Z,5.70
2023-05-16T10:12:53.329Z,4.80
2023-05-16T10:15:20.977Z,4.77
2023-05-16T10:17:53.028Z,5.30
2023-05-16T10:20:21.423Z,4.00
2023-05-16T10:22:51.633Z,5.47
2023-05-16T10:25:30.267Z,4.10
2023-05-16T10:27:58.427Z,7.23
2023-05-16T10:30:25.550Z,6.27
2023-05-16T10:32:53.348Z,5.67
2023-05-16T10:35:21.726Z,5.63
2023-05-16T10:37:50.541Z,6.77
2023-05-16T10:40:18.450Z,7.13
2023-05-16T10:42:57.216Z,8.30
2023-05-16T10:45:24.234Z,4.40
2023-05-16T10:48:01.490Z,7.67
2023-05-16T10:50:44.931Z,7.13
2023-05-16T10:53:34.437Z,7.37
2023-05-16T10:56:03.881Z,7.30
2023-05-16T10:58:35.094Z,8.23
2023-05-16T11:01:29.182Z,5.70
2023-05-16T11:03:58.953Z,6.70
2023-05-16T11:06:36.164Z,9.53
2023-05-16T11:09:11.956Z,5.30
2023-05-16T11:11:39.287Z,5.23
2023-05-16T11:14:06.139Z,5.50
2023-05-16T11:16:34.701Z,4.67
2023-05-16T11:19:06.567Z,4.53
2023-05-16T11:22:05.137Z,5.93
2023-05-16T11:24:32.204Z,5.47
2023-05-16T11:27:02.848Z,4.97
2023-05-16T11:29:32.433Z,4.43
2023-05-16T11:32:00.678Z,5.60
2023-05-16T11:34:27.757Z,5.30
2023-05-16T11:36:54.939Z,4.10
2023-05-16T11:39:24.377Z,4.63
2023-05-16T11:41:52.144Z,4.27
2023-05-16T11:44:19.165Z,4.97
2023-05-16T11:46:46.605Z,5.53
2023-05-16T11:49:13.640Z,7.03
2023-05-16T11:51:41.606Z,5.83
2023-05-16T11:54:10.511Z,5.07
2023-05-16T11:56:37.466Z,2.60
2023-05-16T11:59:04.481Z,3.83
2023-05-16T12:01:38.868Z,3.53
2023-05-16T12:04:14.079Z,3.42
2023-05-16T12:06:44.230Z,5.50
2023-05-16T12:09:18.151Z,3.45
2023-05-16T12:11:45.310Z,4.88
2023-05-16T12:14:13.822Z,6.85
2023-05-16T12:16:43.943Z,3.58
2023-05-16T12:19:11.518Z,4.32
2023-05-16T12:21:38.813Z,4.55
2023-05-16T12:24:09.045Z,4.38
2023-05-16T12:26:35.939Z,4.07
2023-05-16T12:29:05.548Z,5.27
2023-05-16T12:31:37.030Z,4.87
2023-05-16T12:34:03.827Z,3.53
2023-05-16T12:36:34.962Z,2.30
2023-05-16T12:39:03.651Z,2.93
2023-05-16T12:41:31.414Z,6.70
2023-05-16T12:44:12.170Z,3.73
2023-05-16T12:46:43.665Z,6.27
2023-05-16T12:49:10.426Z,5.23
2023-05-16T12:51:37.547Z,4.53
2023-05-16T12:54:11.845Z,4.23
2023-05-16T12:56:40.617Z,4.47
2023-05-16T12:59:08.639Z,4.90
2023-05-16T13:01:36.585Z,4.97
2023-05-16T13:04:04.676Z,3.07
2023-05-16T13:06:44.960Z,4.47
2023-05-16T13:09:19.227Z,6.63
2023-05-16T13:11:45.940Z,4.80
2023-05-16T13:14:12.899Z,5.30
2023-05-16T13:16:39.745Z,5.67
2023-05-16T13:19:06.758Z,6.07
2023-05-16T13:21:33.536Z,5.97
2023-05-16T13:24:00.320Z,6.87
2023-05-16T13:26:27.337Z,4.03
2023-05-16T13:28:55.062Z,6.10
2023-05-16T13:31:25.353Z,5.10
2023-05-16T13:33:52.186Z,4.60
2023-05-16T13:36:18.877Z,3.70
2023-05-16T13:38:45.630Z,3.37
2023-05-16T13:41:12.316Z,2.73
2023-05-16T13:43:38.987Z,3.23
2023-05-16T13:46:06.081Z,4.37
2023-05-16T13:48:32.865Z,6.27
2023-05-16T13:50:59.717Z,4.37
2023-05-16T13:53:26.899Z,4.67
2023-05-16T13:55:54.392Z,4.17
2023-05-16T13:58:22.241Z,5.77
2023-05-16T14:00:49.149Z,6.73
2023-05-16T14:03:16.207Z,3.33
2023-05-16T14:05:42.999Z,4.63
2023-05-16T14:08:09.763Z,3.57
2023-05-16T14:10:36.432Z,3.40
2023-05-16T14:13:03.204Z,4.30
2023-05-16T14:15:30.184Z,2.93
2023-05-16T14:17:57.116Z,6.07
2023-05-16T14:20:23.822Z,4.83
2023-05-16T14:22:50.570Z,5.40
2023-05-16T14:25:17.473Z,3.27
2023-05-16T14:27:44.309Z,3.73
2023-05-16T14:30:11.470Z,3.17
2023-05-16T14:32:38.188Z,3.43
2023-05-16T14:35:05.467Z,3.17
2023-05-16T14:37:32.443Z,3.43
2023-05-16T14:40:00.813Z,6.77
2023-05-16T14:42:27.568Z,4.40
2023-05-16T14:44:54.216Z,3.50
2023-05-16T14:47:20.901Z,4.23
2023-05-16T14:49:47.561Z,3.07
2023-05-16T14:52:14.353Z,3.43
2023-05-16T14:54:41.086Z,4.37
2023-05-16T14:57:08.119Z,4.73
2023-05-16T14:59:34.807Z,4.60
2023-05-16T15:02:01.706Z,4.43
2023-05-16T15:04:28.921Z,5.20
2023-05-16T15:06:55.947Z,3.07
2023-05-16T15:09:22.760Z,4.07
2023-05-16T15:11:49.474Z,3.20
2023-05-16T15:14:16.277Z,4.17
2023-05-16T15:16:43.313Z,3.27
2023-05-16T15:19:10.218Z,3.93
2023-05-16T15:21:37.085Z,6.53
2023-05-16T15:24:04.077Z,3.57
2023-05-16T15:26:31.030Z,5.57
2023-05-16T15:28:57.813Z,5.27
2023-05-16T15:31:24.597Z,4.97
2023-05-16T15:33:51.341Z,5.67
2023-05-16T15:36:18.105Z,2.73
2023-05-16T15:38:45.718Z,2.87
2023-05-16T15:41:31.429Z,6.73
2023-05-16T15:44:00.404Z,3.57
2023-05-16T15:46:27.386Z,3.20
2023-05-16T15:48:54.167Z,3.37
2023-05-16T15:51:21.114Z,3.47
2023-05-16T15:53:47.965Z,4.27
2023-05-16T15:56:14.698Z,2.57
2023-05-16T15:58:41.489Z,3.07
2023-05-16T16:01:08.135Z,3.67
2023-05-16T16:03:34.909Z,5.03
2023-05-16T16:06:01.803Z,4.33
2023-05-16T16:08:28.617Z,2.73
2023-05-16T16:10:55.500Z,8.00
2023-05-16T16:13:24.112Z,19.10
2023-05-16T16:15:50.979Z,6.87
2023-05-16T16:18:17.744Z,3.67
2023-05-16T16:20:44.494Z,5.40
2023-05-16T16:23:11.396Z,4.90
2023-05-16T16:25:38.183Z,3.70
2023-05-16T16:28:04.985Z,2.83
2023-05-16T16:30:34.518Z,6.33
2023-05-16T16:33:01.368Z,5.10
2023-05-16T16:35:28.654Z,4.30
2023-05-16T16:40:29.110Z,3.33
2023-05-16T16:42:55.797Z,3.07
2023-05-16T16:45:22.716Z,4.27
2023-05-16T16:47:49.572Z,4.57
2023-05-16T16:50:16.337Z,4.27
2023-05-16T16:52:43.303Z,5.00
2023-05-16T16:55:10.059Z,2.90
2023-05-16T16:57:36.949Z,3.00
2023-05-16T17:00:04.180Z,4.00
2023-05-16T17:02:31.962Z,3.33
2023-05-16T17:04:58.687Z,4.50
2023-05-16T17:07:25.367Z,3.13
2023-05-16T17:09:53.881Z,2.57
2023-05-16T17:12:21.996Z,3.60
2023-05-16T17:14:50.301Z,4.07
2023-05-16T17:17:18.455Z,3.20
2023-05-16T17:19:46.862Z,4.27
2023-05-16T17:22:13.896Z,5.73
2023-05-16T17:24:40.822Z,3.93
2023-05-16T17:27:07.545Z,4.80
2023-05-16T17:29:34.270Z,4.47
2023-05-16T17:32:01.126Z,6.13
2023-05-16T17:34:27.888Z,5.70
2023-05-16T17:36:54.540Z,4.27
2023-05-16T17:39:21.343Z,4.60
2023-05-16T17:41:47.995Z,3.47
2023-05-16T17:44:14.647Z,5.87
2023-05-16T17:46:42.510Z,3.97
2023-05-16T17:49:09.931Z,2.87
2023-05-16T17:51:47.883Z,3.20
2023-05-16T17:54:16.068Z,4.87
2023-05-16T17:56:42.890Z,5.53
2023-05-16T17:59:10.714Z,6.80
2023-05-16T18:01:38.249Z,4.00
2023-05-16T18:04:06.798Z,4.30
2023-05-16T18:06:37.824Z,5.00
2023-05-16T18:09:09.921Z,3.90
2023-05-16T18:11:39.437Z,1.87
2023-05-16T18:14:09.166Z,2.77
2023-05-16T18:16:36.225Z,2.63
2023-05-16T18:19:04.873Z,2.17
2023-05-16T18:21:32.168Z,5.27
2023-05-16T18:23:59.534Z,3.67
2023-05-16T18:26:28.501Z,3.07
2023-05-16T18:28:55.556Z,3.47
2023-05-16T18:31:22.593Z,3.40
2023-05-16T18:33:49.865Z,4.53
2023-05-16T18:36:16.637Z,3.43
2023-05-16T18:38:43.473Z,3.80
2023-05-16T18:41:10.170Z,6.93
2023-05-16T18:43:36.916Z,4.53
2023-05-16T18:46:04.322Z,1.77
2023-05-16T18:48:31.915Z,3.87
2023-05-16T18:50:59.623Z,3.50
2023-05-16T18:53:26.337Z,5.83
2023-05-16T18:55:53.111Z,5.07
2023-05-16T18:58:20.222Z,3.20
2023-05-16T19:00:47.175Z,3.80
2023-05-16T19:03:13.952Z,4.80
2023-05-16T19:05:40.788Z,4.77
2023-05-16T19:08:07.627Z,4.43
2023-05-16T19:10:37.990Z,3.00
2023-05-16T19:13:08.757Z,4.60
2023-05-16T19:15:36.449Z,4.67
2023-05-16T19:18:04.776Z,3.53
2023-05-16T19:20:32.959Z,2.83
2023-05-16T19:22:59.692Z,4.33
2023-05-16T19:25:26.976Z,6.40
2023-05-16T19:27:54.101Z,6.43
2023-05-16T19:30:22.952Z,4.77
2023-05-16T19:32:51.196Z,7.17
2023-05-16T19:35:18.862Z,3.00
2023-05-16T19:37:46.306Z,2.53
2023-05-16T19:40:15.393Z,3.33
2023-05-16T19:42:43.829Z,4.83
2023-05-16T19:45:10.912Z,4.50
2023-05-16T19:47:37.654Z,3.50
2023-05-16T19:50:05.038Z,3.63
2023-05-16T19:52:31.828Z,3.13
2023-05-16T19:55:01.675Z,4.63
2023-05-16T19:57:28.557Z,2.97
2023-05-16T19:59:55.254Z,4.33
2023-05-16T20:02:24.326Z,5.23
2023-05-16T20:04:51.657Z,4.27
2023-05-16T20:07:18.548Z,4.00
2023-05-16T20:09:45.360Z,3.90
2023-05-16T20:12:12.760Z,6.07
2023-05-16T20:14:39.624Z,4.47
2023-05-16T20:17:06.823Z,5.43
2023-05-16T20:19:34.265Z,4.10
2023-05-16T20:22:01.408Z,5.17
2023-05-16T20:24:28.110Z,4.00
2023-05-16T20:26:54.742Z,6.60
2023-05-16T20:29:21.477Z,3.87
2023-05-16T20:31:48.181Z,4.27
2023-05-16T20:34:14.930Z,6.23
2023-05-16T20:36:41.716Z,4.77
2023-05-16T20:39:09.020Z,4.83
2023-05-16T20:41:35.799Z,6.57
2023-05-16T20:44:02.498Z,5.43
2023-05-16T20:46:29.273Z,3.20
2023-05-16T20:48:56.055Z,7.07
2023-05-16T20:51:22.772Z,3.70
2023-05-16T20:53:49.679Z,3.57
2023-05-16T20:56:16.501Z,4.93
2023-05-16T20:58:43.763Z,6.83
2023-05-16T21:01:10.566Z,3.93
2023-05-16T21:03:37.464Z,3.60
2023-05-16T21:06:04.482Z,3.47
2023-05-16T21:08:31.747Z,3.83
2023-05-16T21:10:58.652Z,6.27
2023-05-16T21:13:25.797Z,4.30
2023-05-16T21:15:52.645Z,3.00
2023-05-16T21:18:19.501Z,5.40
2023-05-16T21:20:46.292Z,3.37
2023-05-16T21:23:13.019Z,4.10
2023-05-16T21:25:41.133Z,5.77
2023-05-16T21:28:08.076Z,4.17
2023-05-16T21:30:34.819Z,6.30
2023-05-16T21:33:01.873Z,4.63
2023-05-16T21:35:28.945Z,7.50
2023-05-16T21:37:55.992Z,5.30
2023-05-16T21:40:24.979Z,10.43
2023-05-16T21:42:52.705Z,5.60
2023-05-16T21:45:19.456Z,5.43
2023-05-16T21:47:46.914Z,6.30
2023-05-16T21:50:13.882Z,4.87
2023-05-16T21:52:41.040Z,3.77
2023-05-16T21:55:08.654Z,4.67
2023-05-16T21:57:35.493Z,5.73
2023-05-16T22:00:06.516Z,3.53
2023-05-16T22:02:35.173Z,5.00
2023-05-16T22:05:02.559Z,4.43
2023-05-16T22:07:29.679Z,5.03
2023-05-16T22:09:56.893Z,3.87
2023-05-16T22:12:24.059Z,6.17
2023-05-16T22:14:51.092Z,5.80
2023-05-16T22:17:19.548Z,6.13
2023-05-16T22:19:46.718Z,4.87
2023-05-16T22:22:13.547Z,3.93
2023-05-16T22:24:40.389Z,6.17
2023-05-16T22:27:07.110Z,5.27
2023-05-16T22:29:38.070Z,7.17
2023-05-16T22:32:09.025Z,4.77
2023-05-16T22:34:41.725Z,4.67
2023-05-16T22:37:09.673Z,5.87
2023-05-16T22:39:36.566Z,6.50
2023-05-16T22:42:03.640Z,5.63
2023-05-16T22:44:30.418Z,4.30
2023-05-16T22:46:57.084Z,3.87
2023-05-16T22:49:23.819Z,5.53
2023-05-16T22:51:50.606Z,8.63
2023-05-16T22:54:17.441Z,5.97
2023-05-16T22:56:44.168Z,3.83
2023-05-16T22:59:11.020Z,6.73
2023-05-16T23:01:37.834Z,6.10
2023-05-16T23:04:04.904Z,4.70
2023-05-16T23:06:32.504Z,5.10
2023-05-16T23:09:04.213Z,4.70
2023-05-16T23:11:31.942Z,5.47
2023-05-16T23:13:58.662Z,4.87
2023-05-16T23:16:25.427Z,4.63
2023-05-16T23:18:52.231Z,4.13
2023-05-16T23:21:18.999Z,5.80
2023-05-16T23:23:45.638Z,3.47
2023-05-16T23:26:12.379Z,4.97
2023-05-16T23:28:39.347Z,3.20
2023-05-16T23:31:06.356Z,3.47
2023-05-16T23:33:33.071Z,4.23
2023-05-16T23:35:59.787Z,5.07
2023-05-16T23:38:27.367Z,6.23
2023-05-16T23:40:54.079Z,5.33
2023-05-16T23:43:21.231Z,4.63
2023-05-16T23:45:47.903Z,5.43
2023-05-16T23:48:14.748Z,6.40
2023-05-16T23:50:41.588Z,5.10
2023-05-16T23:53:08.329Z,6.63
2023-05-16T23:55:35.016Z,4.23
2023-05-16T23:58:01.770Z,4.47
